sensor_id;sensor_type;location;lat;lon;timestamp;pressure;altitude;pressure_sealevel;temperature
44429;BMP180;30134;47.866;-4.222;2023-09-08T00:00:07;101167.00;;;28.90
44429;BMP180;30134;47.866;-4.222;2023-09-08T00:02:35;101172.00;;;28.90
44429;BMP180;30134;47.866;-4.222;2023-09-08T00:05:01;101176.00;;;29.00
44429;BMP180;30134;47.866;-4.222;2023-09-08T00:07:27;101179.00;;;28.90
44429;BMP180;30134;47.866;-4.222;2023-09-08T00:09:54;101180.00;;;28.80
44429;BMP180;30134;47.866;-4.222;2023-09-08T00:12:20;101187.00;;;28.90
44429;BMP180;30134;47.866;-4.222;2023-09-08T00:14:47;101189.00;;;28.90
44429;BMP180;30134;47.866;-4.222;2023-09-08T00:17:13;101190.00;;;28.90
44429;BMP180;30134;47.866;-4.222;2023-09-08T00:19:39;101194.00;;;28.90
44429;BMP180;30134;47.866;-4.222;2023-09-08T00:22:07;101199.00;;;29.00
44429;BMP180;30134;47.866;-4.222;2023-09-08T00:24:34;101209.00;;;29.00
44429;BMP180;30134;47.866;-4.222;2023-09-08T00:27:00;101202.00;;;29.00
44429;BMP180;30134;47.866;-4.222;2023-09-08T00:29:26;101197.00;;;28.90
44429;BMP180;30134;47.866;-4.222;2023-09-08T00:31:53;101200.00;;;29.00
44429;BMP180;30134;47.866;-4.222;2023-09-08T00:34:19;101200.00;;;29.00
44429;BMP180;30134;47.866;-4.222;2023-09-08T00:36:45;101201.00;;;29.00
44429;BMP180;30134;47.866;-4.222;2023-09-08T00:39:12;101191.00;;;29.00
44429;BMP180;30134;47.866;-4.222;2023-09-08T00:41:38;101196.00;;;29.00
44429;BMP180;30134;47.866;-4.222;2023-09-08T00:44:04;101189.00;;;29.10
44429;BMP180;30134;47.866;-4.222;2023-09-08T00:46:31;101189.00;;;29.10
44429;BMP180;30134;47.866;-4.222;2023-09-08T00:48:57;101196.00;;;29.10
44429;BMP180;30134;47.866;-4.222;2023-09-08T00:51:24;101197.00;;;29.10
44429;BMP180;30134;47.866;-4.222;2023-09-08T00:53:50;101200.00;;;29.10
44429;BMP180;30134;47.866;-4.222;2023-09-08T00:56:17;101205.00;;;29.00
44429;BMP180;30134;47.866;-4.222;2023-09-08T00:58:44;101203.00;;;28.90
44429;BMP180;30134;47.866;-4.222;2023-09-08T01:01:10;101194.00;;;28.90
44429;BMP180;30134;47.866;-4.222;2023-09-08T01:03:43;101183.00;;;28.90
44429;BMP180;30134;47.866;-4.222;2023-09-08T01:06:10;101174.00;;;29.20
44429;BMP180;30134;47.866;-4.222;2023-09-08T01:08:37;101168.00;;;29.00
44429;BMP180;30134;47.866;-4.222;2023-09-08T01:11:04;101176.00;;;28.90
44429;BMP180;30134;47.866;-4.222;2023-09-08T01:13:30;101181.00;;;29.00
44429;BMP180;30134;47.866;-4.222;2023-09-08T01:15:56;101175.00;;;29.00
44429;BMP180;30134;47.866;-4.222;2023-09-08T01:18:23;101177.00;;;29.10
44429;BMP180;30134;47.866;-4.222;2023-09-08T01:26:10;101190.00;;;29.00
44429;BMP180;30134;47.866;-4.222;2023-09-08T01:28:40;101185.00;;;29.00
44429;BMP180;30134;47.866;-4.222;2023-09-08T01:31:08;101180.00;;;29.00
44429;BMP180;30134;47.866;-4.222;2023-09-08T01:33:35;101182.00;;;29.00
44429;BMP180;30134;47.866;-4.222;2023-09-08T01:36:02;101172.00;;;29.00
44429;BMP180;30134;47.866;-4.222;2023-09-08T01:38:28;101162.00;;;29.10
44429;BMP180;30134;47.866;-4.222;2023-09-08T01:40:54;101164.00;;;29.00
44429;BMP180;30134;47.866;-4.222;2023-09-08T01:43:20;101153.00;;;29.10
44429;BMP180;30134;47.866;-4.222;2023-09-08T01:45:47;101165.00;;;29.00
44429;BMP180;30134;47.866;-4.222;2023-09-08T01:48:13;101163.00;;;29.00
44429;BMP180;30134;47.866;-4.222;2023-09-08T01:50:39;101160.00;;;29.00
44429;BMP180;30134;47.866;-4.222;2023-09-08T01:53:06;101166.00;;;29.00
44429;BMP180;30134;47.866;-4.222;2023-09-08T01:55:32;101173.00;;;28.90
44429;BMP180;30134;47.866;-4.222;2023-09-08T01:57:58;101172.00;;;29.10
44429;BMP180;30134;47.866;-4.222;2023-09-08T02:00:25;101169.00;;;29.00
44429;BMP180;30134;47.866;-4.222;2023-09-08T02:02:51;101178.00;;;29.00
44429;BMP180;30134;47.866;-4.222;2023-09-08T02:05:17;101168.00;;;29.00
44429;BMP180;30134;47.866;-4.222;2023-09-08T02:07:44;101173.00;;;29.20
44429;BMP180;30134;47.866;-4.222;2023-09-08T02:10:10;101170.00;;;29.10
44429;BMP180;30134;47.866;-4.222;2023-09-08T02:12:37;101172.00;;;29.10
44429;BMP180;30134;47.866;-4.222;2023-09-08T02:15:03;101177.00;;;29.10
44429;BMP180;30134;47.866;-4.222;2023-09-08T02:17:30;101173.00;;;29.00
44429;BMP180;30134;47.866;-4.222;2023-09-08T02:19:57;101172.00;;;29.00
44429;BMP180;30134;47.866;-4.222;2023-09-08T02:22:23;101176.00;;;29.20
44429;BMP180;30134;47.866;-4.222;2023-09-08T02:24:50;101166.00;;;29.10
44429;BMP180;30134;47.866;-4.222;2023-09-08T02:27:18;101170.00;;;29.10
44429;BMP180;30134;47.866;-4.222;2023-09-08T02:29:44;101173.00;;;29.10
44429;BMP180;30134;47.866;-4.222;2023-09-08T02:32:11;101173.00;;;29.00
44429;BMP180;30134;47.866;-4.222;2023-09-08T02:34:37;101176.00;;;29.10
44429;BMP180;30134;47.866;-4.222;2023-09-08T02:37:03;101176.00;;;29.10
44429;BMP180;30134;47.866;-4.222;2023-09-08T02:39:31;101181.00;;;29.00
44429;BMP180;30134;47.866;-4.222;2023-09-08T02:41:58;101180.00;;;29.00
44429;BMP180;30134;47.866;-4.222;2023-09-08T02:44:24;101182.00;;;29.00
44429;BMP180;30134;47.866;-4.222;2023-09-08T02:46:52;101177.00;;;29.10
44429;BMP180;30134;47.866;-4.222;2023-09-08T02:49:18;101179.00;;;28.90
44429;BMP180;30134;47.866;-4.222;2023-09-08T02:51:45;101180.00;;;29.00
44429;BMP180;30134;47.866;-4.222;2023-09-08T02:54:11;101175.00;;;28.90
44429;BMP180;30134;47.866;-4.222;2023-09-08T02:56:37;101169.00;;;29.00
44429;BMP180;30134;47.866;-4.222;2023-09-08T02:59:04;101159.00;;;29.00
44429;BMP180;30134;47.866;-4.222;2023-09-08T03:01:30;101153.00;;;29.10
44429;BMP180;30134;47.866;-4.222;2023-09-08T03:03:56;101156.00;;;28.90
44429;BMP180;30134;47.866;-4.222;2023-09-08T03:06:23;101158.00;;;28.90
44429;BMP180;30134;47.866;-4.222;2023-09-08T03:08:50;101154.00;;;29.10
44429;BMP180;30134;47.866;-4.222;2023-09-08T03:11:16;101160.00;;;29.10
44429;BMP180;30134;47.866;-4.222;2023-09-08T03:13:42;101153.00;;;29.10
44429;BMP180;30134;47.866;-4.222;2023-09-08T03:16:09;101158.00;;;29.20
44429;BMP180;30134;47.866;-4.222;2023-09-08T03:18:37;101152.00;;;29.00
44429;BMP180;30134;47.866;-4.222;2023-09-08T03:21:04;101159.00;;;28.90
44429;BMP180;30134;47.866;-4.222;2023-09-08T03:23:38;101164.00;;;28.90
44429;BMP180;30134;47.866;-4.222;2023-09-08T03:26:06;101160.00;;;29.10
44429;BMP180;30134;47.866;-4.222;2023-09-08T03:28:33;101164.00;;;29.00
44429;BMP180;30134;47.866;-4.222;2023-09-08T03:31:00;101159.00;;;29.00
44429;BMP180;30134;47.866;-4.222;2023-09-08T03:33:27;101157.00;;;29.00
44429;BMP180;30134;47.866;-4.222;2023-09-08T03:35:53;101159.00;;;29.00
44429;BMP180;30134;47.866;-4.222;2023-09-08T03:38:19;101159.00;;;29.10
44429;BMP180;30134;47.866;-4.222;2023-09-08T03:40:46;101161.00;;;29.10
44429;BMP180;30134;47.866;-4.222;2023-09-08T03:43:12;101160.00;;;29.00
44429;BMP180;30134;47.866;-4.222;2023-09-08T03:45:38;101157.00;;;29.10
44429;BMP180;30134;47.866;-4.222;2023-09-08T03:48:05;101157.00;;;29.10
44429;BMP180;30134;47.866;-4.222;2023-09-08T03:50:31;101153.00;;;29.00
44429;BMP180;30134;47.866;-4.222;2023-09-08T03:52:58;101148.00;;;29.00
44429;BMP180;30134;47.866;-4.222;2023-09-08T03:55:24;101143.00;;;29.00
44429;BMP180;30134;47.866;-4.222;2023-09-08T03:57:50;101143.00;;;29.00
44429;BMP180;30134;47.866;-4.222;2023-09-08T04:00:17;101137.00;;;29.10
44429;BMP180;30134;47.866;-4.222;2023-09-08T04:02:50;101129.00;;;29.10
44429;BMP180;30134;47.866;-4.222;2023-09-08T04:05:17;101136.00;;;29.00
44429;BMP180;30134;47.866;-4.222;2023-09-08T04:07:45;101132.00;;;29.00
44429;BMP180;30134;47.866;-4.222;2023-09-08T04:10:11;101138.00;;;29.00
44429;BMP180;30134;47.866;-4.222;2023-09-08T04:12:39;101136.00;;;29.00
44429;BMP180;30134;47.866;-4.222;2023-09-08T04:15:06;101133.00;;;29.00
44429;BMP180;30134;47.866;-4.222;2023-09-08T04:17:32;101130.00;;;29.10
44429;BMP180;30134;47.866;-4.222;2023-09-08T04:19:59;101130.00;;;29.00
44429;BMP180;30134;47.866;-4.222;2023-09-08T04:22:26;101127.00;;;29.00
44429;BMP180;30134;47.866;-4.222;2023-09-08T04:24:52;101121.00;;;29.00
44429;BMP180;30134;47.866;-4.222;2023-09-08T04:27:20;101113.00;;;29.00
44429;BMP180;30134;47.866;-4.222;2023-09-08T04:29:46;101119.00;;;28.90
44429;BMP180;30134;47.866;-4.222;2023-09-08T04:32:12;101110.00;;;29.00
44429;BMP180;30134;47.866;-4.222;2023-09-08T04:34:40;101109.00;;;29.00
44429;BMP180;30134;47.866;-4.222;2023-09-08T04:37:07;101115.00;;;29.10
44429;BMP180;30134;47.866;-4.222;2023-09-08T04:39:34;101115.00;;;29.00
44429;BMP180;30134;47.866;-4.222;2023-09-08T04:42:01;101124.00;;;28.90
44429;BMP180;30134;47.866;-4.222;2023-09-08T04:44:27;101123.00;;;28.90
44429;BMP180;30134;47.866;-4.222;2023-09-08T04:46:55;101115.00;;;28.90
44429;BMP180;30134;47.866;-4.222;2023-09-08T04:49:21;101117.00;;;29.00
44429;BMP180;30134;47.866;-4.222;2023-09-08T04:51:47;101112.00;;;29.00
44429;BMP180;30134;47.866;-4.222;2023-09-08T04:54:14;101114.00;;;29.00
44429;BMP180;30134;47.866;-4.222;2023-09-08T04:56:40;101116.00;;;29.00
44429;BMP180;30134;47.866;-4.222;2023-09-08T04:59:07;101115.00;;;29.00
44429;BMP180;30134;47.866;-4.222;2023-09-08T05:01:33;101112.00;;;28.90
44429;BMP180;30134;47.866;-4.222;2023-09-08T05:04:03;101116.00;;;29.00
44429;BMP180;30134;47.866;-4.222;2023-09-08T05:06:30;101123.00;;;28.90
44429;BMP180;30134;47.866;-4.222;2023-09-08T05:08:57;101117.00;;;28.80
44429;BMP180;30134;47.866;-4.222;2023-09-08T05:11:23;101124.00;;;29.00
44429;BMP180;30134;47.866;-4.222;2023-09-08T05:13:50;101119.00;;;29.00
44429;BMP180;30134;47.866;-4.222;2023-09-08T05:16:16;101122.00;;;28.90
44429;BMP180;30134;47.866;-4.222;2023-09-08T05:18:44;101123.00;;;29.00
44429;BMP180;30134;47.866;-4.222;2023-09-08T05:21:11;101122.00;;;28.90
44429;BMP180;30134;47.866;-4.222;2023-09-08T05:23:37;101128.00;;;28.90
44429;BMP180;30134;47.866;-4.222;2023-09-08T05:26:03;101127.00;;;29.00
44429;BMP180;30134;47.866;-4.222;2023-09-08T05:28:30;101123.00;;;28.80
44429;BMP180;30134;47.866;-4.222;2023-09-08T05:30:56;101126.00;;;28.90
44429;BMP180;30134;47.866;-4.222;2023-09-08T05:33:22;101130.00;;;28.90
44429;BMP180;30134;47.866;-4.222;2023-09-08T05:35:49;101128.00;;;28.90
44429;BMP180;30134;47.866;-4.222;2023-09-08T05:38:15;101129.00;;;28.90
44429;BMP180;30134;47.866;-4.222;2023-09-08T05:40:41;101133.00;;;28.90
44429;BMP180;30134;47.866;-4.222;2023-09-08T05:43:08;101126.00;;;28.90
44429;BMP180;30134;47.866;-4.222;2023-09-08T05:45:34;101129.00;;;29.00
44429;BMP180;30134;47.866;-4.222;2023-09-08T05:48:01;101128.00;;;28.90
44429;BMP180;30134;47.866;-4.222;2023-09-08T05:50:27;101140.00;;;28.90
44429;BMP180;30134;47.866;-4.222;2023-09-08T05:52:53;101144.00;;;28.90
44429;BMP180;30134;47.866;-4.222;2023-09-08T05:55:19;101142.00;;;28.90
44429;BMP180;30134;47.866;-4.222;2023-09-08T05:57:47;101144.00;;;28.90
44429;BMP180;30134;47.866;-4.222;2023-09-08T06:00:13;101146.00;;;28.90
44429;BMP180;30134;47.866;-4.222;2023-09-08T06:02:39;101146.00;;;28.80
44429;BMP180;30134;47.866;-4.222;2023-09-08T06:05:06;101151.00;;;28.80
44429;BMP180;30134;47.866;-4.222;2023-09-08T06:07:32;101152.00;;;29.00
44429;BMP180;30134;47.866;-4.222;2023-09-08T06:09:59;101152.00;;;28.80
44429;BMP180;30134;47.866;-4.222;2023-09-08T06:12:25;101153.00;;;28.90
44429;BMP180;30134;47.866;-4.222;2023-09-08T06:14:52;101163.00;;;28.90
44429;BMP180;30134;47.866;-4.222;2023-09-08T06:17:18;101161.00;;;28.90
44429;BMP180;30134;47.866;-4.222;2023-09-08T06:19:44;101164.00;;;28.80
44429;BMP180;30134;47.866;-4.222;2023-09-08T06:22:10;101166.00;;;28.90
44429;BMP180;30134;47.866;-4.222;2023-09-08T06:24:37;101178.00;;;28.90
44429;BMP180;30134;47.866;-4.222;2023-09-08T06:27:03;101166.00;;;28.90
44429;BMP180;30134;47.866;-4.222;2023-09-08T06:29:30;101185.00;;;28.90
44429;BMP180;30134;47.866;-4.222;2023-09-08T06:31:56;101182.00;;;28.80
44429;BMP180;30134;47.866;-4.222;2023-09-08T06:34:22;101183.00;;;28.80
44429;BMP180;30134;47.866;-4.222;2023-09-08T06:36:49;101191.00;;;28.90
44429;BMP180;30134;47.866;-4.222;2023-09-08T06:39:15;101182.00;;;28.90
44429;BMP180;30134;47.866;-4.222;2023-09-08T06:41:42;101194.00;;;28.80
44429;BMP180;30134;47.866;-4.222;2023-09-08T06:44:08;101197.00;;;28.90
44429;BMP180;30134;47.866;-4.222;2023-09-08T06:46:34;101197.00;;;28.80
44429;BMP180;30134;47.866;-4.222;2023-09-08T06:49:01;101201.00;;;28.80
44429;BMP180;30134;47.866;-4.222;2023-09-08T06:51:27;101207.00;;;28.90
44429;BMP180;30134;47.866;-4.222;2023-09-08T06:53:57;101202.00;;;28.80
44429;BMP180;30134;47.866;-4.222;2023-09-08T06:56:24;101213.00;;;28.90
44429;BMP180;30134;47.866;-4.222;2023-09-08T06:58:50;101217.00;;;28.90
44429;BMP180;30134;47.866;-4.222;2023-09-08T07:01:17;101211.00;;;28.80
44429;BMP180;30134;47.866;-4.222;2023-09-08T07:03:44;101212.00;;;28.80
44429;BMP180;30134;47.866;-4.222;2023-09-08T07:06:11;101211.00;;;28.90
44429;BMP180;30134;47.866;-4.222;2023-09-08T07:08:37;101201.00;;;28.80
44429;BMP180;30134;47.866;-4.222;2023-09-08T07:11:03;101205.00;;;28.80
44429;BMP180;30134;47.866;-4.222;2023-09-08T07:13:30;101206.00;;;28.90
44429;BMP180;30134;47.866;-4.222;2023-09-08T07:15:56;101202.00;;;28.90
44429;BMP180;30134;47.866;-4.222;2023-09-08T07:18:22;101207.00;;;28.90
44429;BMP180;30134;47.866;-4.222;2023-09-08T07:20:49;101211.00;;;28.90
44429;BMP180;30134;47.866;-4.222;2023-09-08T07:23:17;101211.00;;;28.90
44429;BMP180;30134;47.866;-4.222;2023-09-08T07:25:49;101213.00;;;28.90
44429;BMP180;30134;47.866;-4.222;2023-09-08T07:28:17;101208.00;;;28.90
44429;BMP180;30134;47.866;-4.222;2023-09-08T07:30:43;101203.00;;;28.80
44429;BMP180;30134;47.866;-4.222;2023-09-08T07:33:10;101199.00;;;28.80
44429;BMP180;30134;47.866;-4.222;2023-09-08T07:35:40;101198.00;;;28.90
44429;BMP180;30134;47.866;-4.222;2023-09-08T07:38:06;101196.00;;;28.90
44429;BMP180;30134;47.866;-4.222;2023-09-08T07:40:35;101196.00;;;28.80
44429;BMP180;30134;47.866;-4.222;2023-09-08T07:43:02;101203.00;;;28.70
44429;BMP180;30134;47.866;-4.222;2023-09-08T07:45:28;101199.00;;;28.70
44429;BMP180;30134;47.866;-4.222;2023-09-08T07:47:55;101208.00;;;28.70
44429;BMP180;30134;47.866;-4.222;2023-09-08T07:50:26;101205.00;;;28.60
44429;BMP180;30134;47.866;-4.222;2023-09-08T07:52:57;101203.00;;;28.60
44429;BMP180;30134;47.866;-4.222;2023-09-08T07:55:24;101204.00;;;28.70
44429;BMP180;30134;47.866;-4.222;2023-09-08T07:57:54;101200.00;;;28.50
44429;BMP180;30134;47.866;-4.222;2023-09-08T08:00:20;101197.00;;;28.60
44429;BMP180;30134;47.866;-4.222;2023-09-08T08:02:50;101201.00;;;28.50
44429;BMP180;30134;47.866;-4.222;2023-09-08T08:05:17;101202.00;;;28.60
44429;BMP180;30134;47.866;-4.222;2023-09-08T08:07:44;101198.00;;;28.50
44429;BMP180;30134;47.866;-4.222;2023-09-08T08:10:11;101198.00;;;28.40
44429;BMP180;30134;47.866;-4.222;2023-09-08T08:12:39;101197.00;;;28.40
44429;BMP180;30134;47.866;-4.222;2023-09-08T08:15:06;101211.00;;;28.50
44429;BMP180;30134;47.866;-4.222;2023-09-08T08:17:32;101208.00;;;28.50
44429;BMP180;30134;47.866;-4.222;2023-09-08T08:19:59;101206.00;;;28.50
44429;BMP180;30134;47.866;-4.222;2023-09-08T08:22:29;101205.00;;;28.50
44429;BMP180;30134;47.866;-4.222;2023-09-08T08:24:55;101214.00;;;28.50
44429;BMP180;30134;47.866;-4.222;2023-09-08T08:27:22;101216.00;;;28.50
44429;BMP180;30134;47.866;-4.222;2023-09-08T08:29:48;101223.00;;;28.60
44429;BMP180;30134;47.866;-4.222;2023-09-08T08:32:14;101228.00;;;28.40
44429;BMP180;30134;47.866;-4.222;2023-09-08T08:34:41;101227.00;;;28.50
44429;BMP180;30134;47.866;-4.222;2023-09-08T08:37:07;101224.00;;;28.50
44429;BMP180;30134;47.866;-4.222;2023-09-08T08:39:33;101223.00;;;28.50
44429;BMP180;30134;47.866;-4.222;2023-09-08T08:42:07;101216.00;;;28.50
44429;BMP180;30134;47.866;-4.222;2023-09-08T08:44:35;101215.00;;;28.60
44429;BMP180;30134;47.866;-4.222;2023-09-08T08:47:03;101215.00;;;28.50
44429;BMP180;30134;47.866;-4.222;2023-09-08T08:49:33;101211.00;;;28.40
44429;BMP180;30134;47.866;-4.222;2023-09-08T08:52:00;101206.00;;;28.50
44429;BMP180;30134;47.866;-4.222;2023-09-08T08:54:34;101205.00;;;28.40
44429;BMP180;30134;47.866;-4.222;2023-09-08T08:57:02;101214.00;;;28.40
44429;BMP180;30134;47.866;-4.222;2023-09-08T08:59:28;101215.00;;;28.30
44429;BMP180;30134;47.866;-4.222;2023-09-08T09:01:56;101211.00;;;28.40
44429;BMP180;30134;47.866;-4.222;2023-09-08T09:04:24;101219.00;;;28.40
44429;BMP180;30134;47.866;-4.222;2023-09-08T09:06:52;101218.00;;;28.50
44429;BMP180;30134;47.866;-4.222;2023-09-08T09:09:19;101217.00;;;28.50
44429;BMP180;30134;47.866;-4.222;2023-09-08T09:11:45;101218.00;;;28.60
44429;BMP180;30134;47.866;-4.222;2023-09-08T09:14:12;101219.00;;;28.40
44429;BMP180;30134;47.866;-4.222;2023-09-08T09:16:42;101215.00;;;28.50
44429;BMP180;30134;47.866;-4.222;2023-09-08T09:19:17;101228.00;;;28.50
44429;BMP180;30134;47.866;-4.222;2023-09-08T09:21:48;101219.00;;;28.50
44429;BMP180;30134;47.866;-4.222;2023-09-08T09:24:29;101223.00;;;28.40
44429;BMP180;30134;47.866;-4.222;2023-09-08T09:26:56;101225.00;;;28.60
44429;BMP180;30134;47.866;-4.222;2023-09-08T09:29:22;101225.00;;;28.50
44429;BMP180;30134;47.866;-4.222;2023-09-08T09:32:06;101220.00;;;28.30
44429;BMP180;30134;47.866;-4.222;2023-09-08T09:34:34;101229.00;;;28.60
44429;BMP180;30134;47.866;-4.222;2023-09-08T09:37:00;101224.00;;;28.60
44429;BMP180;30134;47.866;-4.222;2023-09-08T09:39:27;101222.00;;;28.50
44429;BMP180;30134;47.866;-4.222;2023-09-08T09:41:56;101225.00;;;28.60
44429;BMP180;30134;47.866;-4.222;2023-09-08T09:44:23;101221.00;;;28.50
44429;BMP180;30134;47.866;-4.222;2023-09-08T09:46:52;101222.00;;;28.60
44429;BMP180;30134;47.866;-4.222;2023-09-08T09:49:19;101222.00;;;28.50
44429;BMP180;30134;47.866;-4.222;2023-09-08T09:51:47;101213.00;;;28.60
44429;BMP180;30134;47.866;-4.222;2023-09-08T09:54:15;101218.00;;;28.60
44429;BMP180;30134;47.866;-4.222;2023-09-08T09:56:42;101212.00;;;28.50
44429;BMP180;30134;47.866;-4.222;2023-09-08T09:59:10;101211.00;;;28.50
44429;BMP180;30134;47.866;-4.222;2023-09-08T10:01:38;101211.00;;;28.60
44429;BMP180;30134;47.866;-4.222;2023-09-08T10:04:05;101226.00;;;28.70
44429;BMP180;30134;47.866;-4.222;2023-09-08T10:06:33;101216.00;;;28.60
44429;BMP180;30134;47.866;-4.222;2023-09-08T10:09:01;101221.00;;;28.60
44429;BMP180;30134;47.866;-4.222;2023-09-08T10:11:47;101223.00;;;28.60
44429;BMP180;30134;47.866;-4.222;2023-09-08T10:14:15;101227.00;;;28.60
44429;BMP180;30134;47.866;-4.222;2023-09-08T10:16:47;101235.00;;;28.70
44429;BMP180;30134;47.866;-4.222;2023-09-08T10:19:18;101228.00;;;28.60
44429;BMP180;30134;47.866;-4.222;2023-09-08T10:21:47;101223.00;;;28.60
44429;BMP180;30134;47.866;-4.222;2023-09-08T10:24:18;101235.00;;;28.50
44429;BMP180;30134;47.866;-4.222;2023-09-08T10:26:58;101230.00;;;28.50
44429;BMP180;30134;47.866;-4.222;2023-09-08T10:29:27;101225.00;;;28.60
44429;BMP180;30134;47.866;-4.222;2023-09-08T10:31:55;101225.00;;;28.50
44429;BMP180;30134;47.866;-4.222;2023-09-08T10:34:22;101224.00;;;28.70
44429;BMP180;30134;47.866;-4.222;2023-09-08T10:36:50;101224.00;;;28.70
44429;BMP180;30134;47.866;-4.222;2023-09-08T10:39:31;101223.00;;;28.70
44429;BMP180;30134;47.866;-4.222;2023-09-08T10:44:59;101223.00;;;28.60
44429;BMP180;30134;47.866;-4.222;2023-09-08T10:47:32;101230.00;;;28.80
44429;BMP180;30134;47.866;-4.222;2023-09-08T10:50:02;101227.00;;;28.70
44429;BMP180;30134;47.866;-4.222;2023-09-08T10:52:31;101236.00;;;28.50
44429;BMP180;30134;47.866;-4.222;2023-09-08T10:54:59;101236.00;;;28.50
44429;BMP180;30134;47.866;-4.222;2023-09-08T10:57:26;101231.00;;;28.50
44429;BMP180;30134;47.866;-4.222;2023-09-08T10:59:53;101222.00;;;28.50
44429;BMP180;30134;47.866;-4.222;2023-09-08T11:02:42;101227.00;;;28.50
44429;BMP180;30134;47.866;-4.222;2023-09-08T11:05:14;101227.00;;;28.70
44429;BMP180;30134;47.866;-4.222;2023-09-08T11:07:45;101222.00;;;28.60
44429;BMP180;30134;47.866;-4.222;2023-09-08T11:10:12;101228.00;;;28.60
44429;BMP180;30134;47.866;-4.222;2023-09-08T11:12:39;101223.00;;;28.70
44429;BMP180;30134;47.866;-4.222;2023-09-08T11:15:07;101223.00;;;28.60
44429;BMP180;30134;47.866;-4.222;2023-09-08T11:17:39;101223.00;;;28.70
44429;BMP180;30134;47.866;-4.222;2023-09-08T11:20:08;101219.00;;;28.80
44429;BMP180;30134;47.866;-4.222;2023-09-08T11:22:38;101210.00;;;28.70
44429;BMP180;30134;47.866;-4.222;2023-09-08T11:25:08;101211.00;;;28.60
44429;BMP180;30134;47.866;-4.222;2023-09-08T11:27:37;101205.00;;;28.60
44429;BMP180;30134;47.866;-4.222;2023-09-08T11:30:07;101210.00;;;28.70
44429;BMP180;30134;47.866;-4.222;2023-09-08T11:32:35;101202.00;;;28.70
44429;BMP180;30134;47.866;-4.222;2023-09-08T11:35:06;101206.00;;;28.80
44429;BMP180;30134;47.866;-4.222;2023-09-08T11:37:34;101208.00;;;28.80
44429;BMP180;30134;47.866;-4.222;2023-09-08T11:40:01;101213.00;;;28.90
44429;BMP180;30134;47.866;-4.222;2023-09-08T11:42:28;101206.00;;;29.00
44429;BMP180;30134;47.866;-4.222;2023-09-08T11:44:57;101200.00;;;29.00
44429;BMP180;30134;47.866;-4.222;2023-09-08T11:47:25;101187.00;;;28.80
44429;BMP180;30134;47.866;-4.222;2023-09-08T11:49:53;101187.00;;;28.90
44429;BMP180;30134;47.866;-4.222;2023-09-08T11:52:23;101183.00;;;28.90
44429;BMP180;30134;47.866;-4.222;2023-09-08T11:54:51;101183.00;;;28.90
44429;BMP180;30134;47.866;-4.222;2023-09-08T11:57:17;101181.00;;;28.90
44429;BMP180;30134;47.866;-4.222;2023-09-08T11:59:44;101173.00;;;29.00
44429;BMP180;30134;47.866;-4.222;2023-09-08T12:02:14;101167.00;;;28.90
44429;BMP180;30134;47.866;-4.222;2023-09-08T12:04:40;101162.00;;;29.00
44429;BMP180;30134;47.866;-4.222;2023-09-08T12:07:12;101155.00;;;28.90
44429;BMP180;30134;47.866;-4.222;2023-09-08T12:09:42;101153.00;;;28.90
44429;BMP180;30134;47.866;-4.222;2023-09-08T12:12:12;101153.00;;;29.00
44429;BMP180;30134;47.866;-4.222;2023-09-08T12:14:42;101153.00;;;29.00
44429;BMP180;30134;47.866;-4.222;2023-09-08T12:17:09;101152.00;;;29.00
44429;BMP180;30134;47.866;-4.222;2023-09-08T12:19:35;101145.00;;;29.00
44429;BMP180;30134;47.866;-4.222;2023-09-08T12:22:04;101146.00;;;29.10
44429;BMP180;30134;47.866;-4.222;2023-09-08T12:27:19;101154.00;;;28.90
44429;BMP180;30134;47.866;-4.222;2023-09-08T12:29:59;101158.00;;;29.00
44429;BMP180;30134;47.866;-4.222;2023-09-08T12:32:31;101157.00;;;29.00
44429;BMP180;30134;47.866;-4.222;2023-09-08T12:34:59;101167.00;;;28.90
44429;BMP180;30134;47.866;-4.222;2023-09-08T12:37:27;101177.00;;;29.00
44429;BMP180;30134;47.866;-4.222;2023-09-08T12:39:54;101173.00;;;28.90
44429;BMP180;30134;47.866;-4.222;2023-09-08T12:42:21;101183.00;;;28.80
44429;BMP180;30134;47.866;-4.222;2023-09-08T12:44:51;101175.00;;;29.00
44429;BMP180;30134;47.866;-4.222;2023-09-08T12:47:19;101180.00;;;28.90
44429;BMP180;30134;47.866;-4.222;2023-09-08T12:49:45;101176.00;;;29.00
44429;BMP180;30134;47.866;-4.222;2023-09-08T12:52:11;101166.00;;;29.00
44429;BMP180;30134;47.866;-4.222;2023-09-08T12:54:38;101164.00;;;29.00
44429;BMP180;30134;47.866;-4.222;2023-09-08T12:57:04;101166.00;;;29.00
44429;BMP180;30134;47.866;-4.222;2023-09-08T12:59:31;101161.00;;;29.00
44429;BMP180;30134;47.866;-4.222;2023-09-08T13:01:57;101149.00;;;29.00
44429;BMP180;30134;47.866;-4.222;2023-09-08T13:04:24;101145.00;;;28.80
44429;BMP180;30134;47.866;-4.222;2023-09-08T13:06:50;101151.00;;;29.00
44429;BMP180;30134;47.866;-4.222;2023-09-08T13:09:17;101144.00;;;28.90
44429;BMP180;30134;47.866;-4.222;2023-09-08T13:11:43;101150.00;;;28.90
44429;BMP180;30134;47.866;-4.222;2023-09-08T13:14:09;101149.00;;;28.80
44429;BMP180;30134;47.866;-4.222;2023-09-08T13:16:36;101147.00;;;29.00
44429;BMP180;30134;47.866;-4.222;2023-09-08T13:19:02;101142.00;;;28.80
44429;BMP180;30134;47.866;-4.222;2023-09-08T13:21:29;101143.00;;;29.00
44429;BMP180;30134;47.866;-4.222;2023-09-08T13:23:55;101136.00;;;28.90
44429;BMP180;30134;47.866;-4.222;2023-09-08T13:26:21;101140.00;;;28.90
44429;BMP180;30134;47.866;-4.222;2023-09-08T13:28:48;101137.00;;;28.90
44429;BMP180;30134;47.866;-4.222;2023-09-08T13:31:14;101137.00;;;28.80
44429;BMP180;30134;47.866;-4.222;2023-09-08T13:33:40;101133.00;;;29.00
44429;BMP180;30134;47.866;-4.222;2023-09-08T13:36:07;101123.00;;;28.90
44429;BMP180;30134;47.866;-4.222;2023-09-08T13:38:33;101121.00;;;29.00
44429;BMP180;30134;47.866;-4.222;2023-09-08T13:41:00;101118.00;;;29.00
44429;BMP180;30134;47.866;-4.222;2023-09-08T13:43:26;101121.00;;;28.90
44429;BMP180;30134;47.866;-4.222;2023-09-08T13:45:56;101110.00;;;28.90
44429;BMP180;30134;47.866;-4.222;2023-09-08T13:48:22;101108.00;;;28.90
44429;BMP180;30134;47.866;-4.222;2023-09-08T13:50:48;101113.00;;;28.90
44429;BMP180;30134;47.866;-4.222;2023-09-08T13:53:15;101115.00;;;29.10
44429;BMP180;30134;47.866;-4.222;2023-09-08T13:55:42;101103.00;;;28.90